Time;durP1;ratioP1;P1;durP2;ratioP2;P2;SDS_P1;SDS_P2;PMS_P1;PMS_P2;Temp;Humidity;BMP_temperature;BMP_pressure;BME280_temperature;BME280_humidity;BME280_pressure;Samples;Min_cycle;Max_cycle;Signal;HPM_P1;HPM_P2
2022/06/23 00:01:49;;;;;;;2.70;1.30;;;;;;;;;;5089448;28;20160;-81
2022/06/23 00:04:18;;;;;;;4.45;1.30;;;;;;;;;;5072058;28;20061;-80
2022/06/23 00:06:51;;;;;;;3.75;1.30;;;;;;;;;;5089276;28;20048;-76
2022/06/23 00:09:34;;;;;;;2.35;1.17;;;;;;;;;;5089886;28;20039;-80
2022/06/23 00:12:19;;;;;;;3.78;1.35;;;;;;;;;;5089463;28;20028;-79
2022/06/23 00:14:47;;;;;;;3.63;1.55;;;;;;;;;;5089839;28;20028;-79
2022/06/23 00:17:25;;;;;;;5.68;1.58;;;;;;;;;;5089446;28;20036;-80
2022/06/23 00:19:51;;;;;;;4.20;1.50;;;;;;;;;;5089620;28;20031;-81
2022/06/23 00:22:20;;;;;;;2.28;1.60;;;;;;;;;;5088799;28;20032;-80
2022/06/23 00:24:52;;;;;;;2.85;1.40;;;;;;;;;;5089744;28;20028;-80
2022/06/23 00:27:21;;;;;;;6.03;1.88;;;;;;;;;;5089425;28;20108;-82
2022/06/23 00:29:48;;;;;;;4.28;1.92;;;;;;;;;;5089934;28;20050;-80
2022/06/23 00:32:14;;;;;;;4.00;2.00;;;;;;;;;;5089377;28;20101;-81
2022/06/23 00:34:52;;;;;;;5.72;1.90;;;;;;;;;;5093218;28;20034;-82
2022/06/23 00:37:19;;;;;;;6.88;2.20;;;;;;;;;;5092925;28;20020;-81
2022/06/23 00:40:07;;;;;;;5.00;2.42;;;;;;;;;;5093396;28;20020;-80
2022/06/23 00:42:36;;;;;;;9.18;2.10;;;;;;;;;;5093159;28;20041;-80
2022/06/23 00:45:13;;;;;;;3.88;1.98;;;;;;;;;;5093703;28;20059;-82
2022/06/23 00:48:03;;;;;;;4.72;2.10;;;;;;;;;;5093198;28;20052;-79
2022/06/23 00:50:45;;;;;;;5.07;1.90;;;;;;;;;;5093855;28;20028;-81
2022/06/23 00:53:11;;;;;;;3.30;2.03;;;;;;;;;;5093239;28;20020;-81
2022/06/23 00:55:55;;;;;;;5.07;2.15;;;;;;;;;;5075046;28;20081;-81
2022/06/23 00:58:47;;;;;;;3.47;2.05;;;;;;;;;;5093157;28;20027;-81
2022/06/23 01:01:29;;;;;;;4.65;2.10;;;;;;;;;;5092808;28;20036;-81
2022/06/23 01:04:12;;;;;;;4.38;2.08;;;;;;;;;;5093177;28;20518;-81
2022/06/23 01:06:48;;;;;;;5.07;2.20;;;;;;;;;;5092761;28;20077;-81
2022/06/23 01:09:26;;;;;;;5.90;2.10;;;;;;;;;;5093221;28;20103;-81
2022/06/23 01:12:00;;;;;;;4.40;2.20;;;;;;;;;;5074498;28;20109;-81
2022/06/23 01:14:25;;;;;;;5.93;2.40;;;;;;;;;;5092835;28;20024;-81
2022/06/23 01:17:01;;;;;;;6.13;2.20;;;;;;;;;;5092617;28;20027;-81
2022/06/23 01:19:51;;;;;;;4.82;2.05;;;;;;;;;;5092715;28;20020;-77
2022/06/23 01:22:54;;;;;;;3.40;2.20;;;;;;;;;;5092268;28;20028;-81
2022/06/23 01:25:38;;;;;;;4.20;1.92;;;;;;;;;;5076766;28;20067;-82
2022/06/23 01:28:08;;;;;;;4.13;2.30;;;;;;;;;;5092822;28;20024;-80
2022/06/23 01:30:52;;;;;;;3.92;2.20;;;;;;;;;;5092775;28;20016;-82
2022/06/23 01:33:38;;;;;;;4.32;2.70;;;;;;;;;;5092419;28;20035;-81
2022/06/23 01:36:12;;;;;;;4.65;2.25;;;;;;;;;;5091998;28;20020;-80
2022/06/23 01:39:00;;;;;;;7.07;2.58;;;;;;;;;;5092427;28;20491;-79
2022/06/23 01:41:38;;;;;;;7.80;3.10;;;;;;;;;;5092289;28;20027;-81
2022/06/23 01:44:26;;;;;;;6.28;2.72;;;;;;;;;;5092111;28;20307;-81
2022/06/23 01:46:54;;;;;;;6.72;2.70;;;;;;;;;;5073889;28;20032;-83
2022/06/23 01:49:23;;;;;;;6.68;2.70;;;;;;;;;;5092081;28;20062;-78
2022/06/23 01:51:54;;;;;;;5.55;2.47;;;;;;;;;;5091635;28;20055;-81
2022/06/23 01:54:19;;;;;;;6.13;2.60;;;;;;;;;;5091815;28;20024;-82
2022/06/23 01:56:57;;;;;;;6.07;2.72;;;;;;;;;;5092226;28;20024;-81
2022/06/23 01:59:50;;;;;;;5.93;2.67;;;;;;;;;;5091913;28;20016;-78
2022/06/23 02:02:38;;;;;;;4.75;2.40;;;;;;;;;;5091778;28;20028;-81
2022/06/23 02:05:27;;;;;;;6.47;2.67;;;;;;;;;;5092221;28;20032;-79
2022/06/23 02:08:02;;;;;;;5.35;2.38;;;;;;;;;;5091852;28;20391;-82
2022/06/23 02:10:39;;;;;;;4.57;2.45;;;;;;;;;;5091881;28;20372;-80
2022/06/23 02:13:10;;;;;;;6.40;2.35;;;;;;;;;;5091495;28;20032;-80
2022/06/23 02:15:47;;;;;;;6.95;2.58;;;;;;;;;;5091723;28;20039;-82
2022/06/23 02:18:30;;;;;;;5.00;2.30;;;;;;;;;;5091379;28;20024;-81
2022/06/23 02:21:01;;;;;;;4.85;2.10;;;;;;;;;;5091389;28;20098;-80
2022/06/23 02:23:32;;;;;;;5.10;2.30;;;;;;;;;;5091375;28;20491;-82
2022/06/23 02:26:06;;;;;;;7.03;2.33;;;;;;;;;;5092159;28;20028;-82
2022/06/23 02:28:52;;;;;;;5.35;2.47;;;;;;;;;;5091693;28;20658;-81
2022/06/23 02:31:53;;;;;;;4.13;2.25;;;;;;;;;;5091632;28;20024;-82
2022/06/23 02:34:30;;;;;;;5.47;2.10;;;;;;;;;;5090917;28;20040;-81
2022/06/23 02:37:01;;;;;;;3.45;2.30;;;;;;;;;;5090814;28;20062;-78
2022/06/23 02:39:37;;;;;;;5.28;2.30;;;;;;;;;;5090934;28;20024;-81
2022/06/23 02:42:16;;;;;;;3.83;2.22;;;;;;;;;;5091439;28;20446;-81
2022/06/23 02:44:44;;;;;;;4.57;2.22;;;;;;;;;;5091278;28;20028;-82
2022/06/23 02:47:24;;;;;;;3.92;2.22;;;;;;;;;;5091075;28;20052;-79
2022/06/23 02:50:25;;;;;;;5.57;2.40;;;;;;;;;;5090891;28;20091;-80
2022/06/23 02:53:15;;;;;;;6.28;2.30;;;;;;;;;;5090279;28;20483;-80
2022/06/23 02:55:40;;;;;;;;;;;;;;;;;;5091202;28;20036;-78
2022/06/23 02:58:18;;;;;;;6.07;2.33;;;;;;;;;;5089856;28;19919;-79
2022/06/23 03:00:59;;;;;;;4.65;2.30;;;;;;;;;;5091007;28;20767;-81
2022/06/23 03:03:56;;;;;;;4.13;2.25;;;;;;;;;;5090543;28;20031;-80
2022/06/23 03:06:44;;;;;;;4.30;2.30;;;;;;;;;;5090872;28;20047;-80
2022/06/23 03:09:18;;;;;;;9.98;2.65;;;;;;;;;;5090573;28;20399;-80
2022/06/23 03:11:54;;;;;;;5.70;2.38;;;;;;;;;;5090520;28;20107;-81
2022/06/23 03:14:50;;;;;;;7.82;2.85;;;;;;;;;;5090258;28;20028;-80
2022/06/23 03:17:47;;;;;;;6.28;2.53;;;;;;;;;;5090558;28;20028;-81
2022/06/23 03:20:31;;;;;;;5.28;2.38;;;;;;;;;;5049527;28;20036;-81
2022/06/23 03:23:24;;;;;;;5.95;2.58;;;;;;;;;;5089888;28;20101;-82
2022/06/23 03:26:02;;;;;;;4.88;2.50;;;;;;;;;;5090530;28;20024;-80
2022/06/23 03:28:50;;;;;;;5.35;2.50;;;;;;;;;;5090037;28;20063;-81
2022/06/23 03:31:35;;;;;;;5.90;2.60;;;;;;;;;;5090285;28;20055;-81
2022/06/23 03:34:10;;;;;;;4.93;2.22;;;;;;;;;;5089757;28;20028;-80
2022/06/23 03:36:46;;;;;;;8.52;2.80;;;;;;;;;;5090016;28;20024;-81
2022/06/23 03:42:29;;;;;;;7.00;2.65;;;;;;;;;;5090487;28;20077;-78
2022/06/23 03:45:06;;;;;;;7.28;2.80;;;;;;;;;;5089799;28;20036;-81
2022/06/23 03:47:37;;;;;;;7.35;2.80;;;;;;;;;;5090022;28;20028;-81
2022/06/23 03:50:25;;;;;;;7.40;2.60;;;;;;;;;;5088576;28;20047;-78
2022/06/23 03:53:16;;;;;;;4.00;2.67;;;;;;;;;;5089369;28;20032;-80
2022/06/23 03:56:12;;;;;;;5.65;2.90;;;;;;;;;;5090082;28;20036;-82
2022/06/23 03:58:43;;;;;;;5.75;2.30;;;;;;;;;;5078885;28;20124;-80
2022/06/23 04:01:11;;;;;;;4.93;2.80;;;;;;;;;;5090031;28;20521;-82
2022/06/23 04:03:58;;;;;;;5.50;2.47;;;;;;;;;;5089841;28;20032;-78
2022/06/23 04:06:44;;;;;;;6.15;2.88;;;;;;;;;;5090151;28;20016;-80
2022/06/23 04:09:21;;;;;;;5.03;2.53;;;;;;;;;;5089157;28;20028;-82
2022/06/23 04:12:10;;;;;;;5.38;2.65;;;;;;;;;;5089440;28;20020;-81
2022/06/23 04:14:49;;;;;;;6.88;2.72;;;;;;;;;;5089369;28;20031;-81
2022/06/23 04:17:26;;;;;;;5.20;2.80;;;;;;;;;;5089850;28;20544;-81
2022/06/23 04:20:15;;;;;;;4.38;2.90;;;;;;;;;;5089587;28;20028;-81
2022/06/23 04:22:52;;;;;;;4.78;2.90;;;;;;;;;;5089599;28;20052;-80
2022/06/23 04:25:21;;;;;;;6.93;2.80;;;;;;;;;;5089504;28;20495;-80
2022/06/23 04:27:51;;;;;;;4.90;2.60;;;;;;;;;;5089668;28;20496;-81
2022/06/23 04:30:38;;;;;;;6.40;2.88;;;;;;;;;;5089427;28;20028;-81
2022/06/23 04:33:07;;;;;;;6.15;2.50;;;;;;;;;;5089561;28;20036;-81
2022/06/23 04:35:36;;;;;;;5.53;2.63;;;;;;;;;;5089335;28;20032;-80
2022/06/23 04:38:10;;;;;;;5.43;2.88;;;;;;;;;;5089800;28;20476;-81
2022/06/23 04:40:42;;;;;;;4.72;2.90;;;;;;;;;;5089452;28;20052;-80
2022/06/23 04:43:26;;;;;;;5.95;2.60;;;;;;;;;;5089543;28;20031;-81
2022/06/23 04:45:59;;;;;;;6.70;2.60;;;;;;;;;;5089506;28;20399;-81
2022/06/23 04:48:44;;;;;;;4.78;2.65;;;;;;;;;;5089039;28;20040;-81
2022/06/23 04:51:33;;;;;;;5.78;2.80;;;;;;;;;;5089150;28;20032;-80
2022/06/23 04:54:10;;;;;;;4.72;2.67;;;;;;;;;;5088974;28;20095;-80
2022/06/23 04:57:01;;;;;;;5.85;2.80;;;;;;;;;;5089605;28;20028;-80
2022/06/23 04:59:36;;;;;;;5.65;2.60;;;;;;;;;;5089253;28;20032;-80
2022/06/23 05:02:30;;;;;;;5.80;2.72;;;;;;;;;;5089660;28;20556;-81
2022/06/23 05:05:01;;;;;;;6.60;2.65;;;;;;;;;;5089075;28;20024;-81
2022/06/23 05:07:55;;;;;;;7.93;2.60;;;;;;;;;;5088849;28;20032;-81
2022/06/23 05:10:28;;;;;;;5.55;2.72;;;;;;;;;;5089033;28;20032;-81
2022/06/23 05:13:06;;;;;;;7.65;2.78;;;;;;;;;;5089246;28;20077;-80
2022/06/23 05:16:02;;;;;;;5.15;2.88;;;;;;;;;;5088936;28;20032;-82
2022/06/23 05:18:34;;;;;;;7.93;3.10;;;;;;;;;;5089126;28;20032;-82
2022/06/23 05:21:07;;;;;;;5.78;2.90;;;;;;;;;;5090857;28;20379;-81
2022/06/23 05:23:52;;;;;;;6.03;3.28;;;;;;;;;;5092699;28;20031;-81
2022/06/23 05:26:31;;;;;;;5.95;3.10;;;;;;;;;;5092450;28;20039;-81
2022/06/23 05:29:04;;;;;;;8.30;3.20;;;;;;;;;;5092619;28;20082;-78
2022/06/23 05:31:35;;;;;;;6.35;2.95;;;;;;;;;;5092483;28;20023;-80
2022/06/23 05:34:08;;;;;;;7.88;3.10;;;;;;;;;;5092406;28;20080;-80
2022/06/23 05:36:45;;;;;;;8.02;3.20;;;;;;;;;;5091967;28;20074;-82
2022/06/23 05:39:30;;;;;;;7.15;3.42;;;;;;;;;;5092794;28;20020;-81
2022/06/23 05:41:59;;;;;;;5.53;2.85;;;;;;;;;;5092644;28;20119;-79
2022/06/23 05:44:33;;;;;;;10.15;3.20;;;;;;;;;;5091985;28;20084;-76
2022/06/23 05:47:00;;;;;;;8.88;3.20;;;;;;;;;;5092227;28;20069;-75
2022/06/23 05:49:36;;;;;;;6.95;2.97;;;;;;;;;;5091741;28;20040;-75
2022/06/23 05:52:05;;;;;;;7.13;3.20;;;;;;;;;;5091838;28;20590;-73
2022/06/23 05:54:41;;;;;;;7.10;3.50;;;;;;;;;;5091737;28;20086;-76
2022/06/23 05:57:34;;;;;;;7.15;3.28;;;;;;;;;;5092080;28;20610;-74
2022/06/23 06:00:12;;;;;;;7.57;2.95;;;;;;;;;;5091582;28;20033;-73
2022/06/23 06:02:57;;;;;;;7.45;3.35;;;;;;;;;;5091891;28;20630;-74
2022/06/23 06:05:37;;;;;;;8.13;3.45;;;;;;;;;;5091484;28;20503;-73
2022/06/23 06:08:11;;;;;;;9.10;3.33;;;;;;;;;;5073831;28;20129;-76
2022/06/23 06:10:37;;;;;;;8.93;3.13;;;;;;;;;;5091616;28;20027;-75
2022/06/23 06:13:07;;;;;;;7.80;3.38;;;;;;;;;;5091895;28;20020;-72
2022/06/23 06:15:38;;;;;;;9.65;3.50;;;;;;;;;;5091521;28;20035;-73
2022/06/23 06:18:28;;;;;;;5.60;2.55;;;;;;;;;;5091995;28;20059;-78
2022/06/23 06:20:56;;;;;;;9.82;3.08;;;;;;;;;;5091255;28;20439;-73
2022/06/23 06:23:37;;;;;;;8.57;3.08;;;;;;;;;;5091563;28;20024;-80
2022/06/23 06:26:04;;;;;;;10.18;3.08;;;;;;;;;;5091475;28;20024;-74
2022/06/23 06:28:32;;;;;;;8.13;2.95;;;;;;;;;;5091880;28;20020;-73
2022/06/23 06:31:22;;;;;;;6.65;3.15;;;;;;;;;;5091349;28;20028;-77
2022/06/23 06:33:58;;;;;;;7.68;3.08;;;;;;;;;;5091656;28;20032;-80
2022/06/23 06:36:34;;;;;;;4.55;2.83;;;;;;;;;;5091044;28;20568;-75
2022/06/23 06:39:12;;;;;;;9.68;2.85;;;;;;;;;;5091750;28;20024;-75
2022/06/23 06:41:41;;;;;;;5.55;2.70;;;;;;;;;;5093214;28;20024;-79
2022/06/23 06:44:07;;;;;;;6.63;2.65;;;;;;;;;;5097688;28;20024;-74
2022/06/23 06:46:34;;;;;;;8.15;3.10;;;;;;;;;;5097926;28;20020;-78
2022/06/23 06:49:00;;;;;;;7.07;2.83;;;;;;;;;;5099814;28;20047;-77
2022/06/23 06:51:27;;;;;;;8.90;2.75;;;;;;;;;;5099710;28;20028;-78
2022/06/23 06:54:00;;;;;;;6.85;2.78;;;;;;;;;;5109603;28;20065;-75
2022/06/23 06:56:40;;;;;;;9.88;2.60;;;;;;;;;;5101852;28;20035;-78
2022/06/23 06:59:19;;;;;;;6.53;3.00;;;;;;;;;;5091220;28;20052;-80
2022/06/23 07:01:50;;;;;;;9.82;3.33;;;;;;;;;;5090935;28;20032;-79
2022/06/23 07:04:28;;;;;;;7.55;2.95;;;;;;;;;;5090929;28;20115;-78
2022/06/23 07:06:59;;;;;;;6.72;2.78;;;;;;;;;;5090819;28;20085;-79
2022/06/23 07:09:39;;;;;;;5.75;2.92;;;;;;;;;;5090965;28;20070;-79
2022/06/23 07:12:12;;;;;;;6.68;2.60;;;;;;;;;;5090889;28;20098;-79
2022/06/23 07:14:50;;;;;;;4.35;2.75;;;;;;;;;;5090792;28;20028;-78
2022/06/23 07:17:34;;;;;;;6.00;2.70;;;;;;;;;;5090867;28;20020;-78
2022/06/23 07:20:25;;;;;;;8.95;2.70;;;;;;;;;;5090884;28;20027;-75
2022/06/23 07:22:57;;;;;;;7.82;2.78;;;;;;;;;;5090426;28;20102;-79
2022/06/23 07:25:29;;;;;;;6.40;2.58;;;;;;;;;;5090495;28;20035;-77
2022/06/23 07:28:13;;;;;;;10.75;3.42;;;;;;;;;;5090836;28;20499;-75
2022/06/23 07:30:44;;;;;;;7.30;2.97;;;;;;;;;;5090461;28;20031;-79
2022/06/23 07:33:12;;;;;;;8.95;2.95;;;;;;;;;;5090609;28;20583;-78
2022/06/23 07:36:24;;;;;;;8.13;2.95;;;;;;;;;;5089968;28;20636;-79
2022/06/23 07:38:57;;;;;;;7.68;3.15;;;;;;;;;;5044875;28;20114;-79
2022/06/23 07:41:35;;;;;;;5.40;2.65;;;;;;;;;;5089980;28;20024;-78
2022/06/23 07:44:07;;;;;;;6.47;2.78;;;;;;;;;;5071628;28;20391;-79
2022/06/23 07:46:35;;;;;;;7.13;2.50;;;;;;;;;;5090058;28;20028;-78
2022/06/23 07:49:01;;;;;;;8.43;2.53;;;;;;;;;;5092114;28;20126;-79
2022/06/23 07:51:27;;;;;;;7.13;3.13;;;;;;;;;;5108363;28;20176;-80
2022/06/23 07:53:55;;;;;;;8.73;2.95;;;;;;;;;;5110485;28;20024;-80
2022/06/23 07:56:23;;;;;;;7.75;3.00;;;;;;;;;;5110206;28;20062;-81
2022/06/23 07:58:53;;;;;;;10.15;3.05;;;;;;;;;;5110297;28;20429;-73
2022/06/23 08:01:24;;;;;;;10.45;2.88;;;;;;;;;;5109981;28;20028;-75
2022/06/23 08:04:08;;;;;;;10.20;3.13;;;;;;;;;;5110306;28;20035;-78
2022/06/23 08:06:35;;;;;;;11.77;3.10;;;;;;;;;;5109520;28;20042;-74
2022/06/23 08:09:04;;;;;;;8.60;3.10;;;;;;;;;;5110364;28;20093;-75
2022/06/23 08:14:25;;;;;;;14.85;3.55;;;;;;;;;;5110125;28;20402;-74
2022/06/23 08:16:50;;;;;;;7.78;3.28;;;;;;;;;;5109696;28;20031;-73
2022/06/23 08:19:34;;;;;;;14.52;3.42;;;;;;;;;;5109967;28;20020;-73
2022/06/23 08:22:12;;;;;;;8.80;3.35;;;;;;;;;;5109329;28;20079;-77
2022/06/23 08:24:39;;;;;;;11.20;3.30;;;;;;;;;;5109840;28;20157;-74
2022/06/23 08:27:09;;;;;;;10.93;4.10;;;;;;;;;;5109559;28;20051;-75
2022/06/23 08:29:43;;;;;;;11.95;3.97;;;;;;;;;;5110161;28;20562;-74
2022/06/23 08:32:11;;;;;;;9.93;3.05;;;;;;;;;;5109681;28;20024;-78
2022/06/23 08:34:48;;;;;;;5.75;3.03;;;;;;;;;;5109638;28;20396;-74
2022/06/23 08:37:22;;;;;;;7.97;3.13;;;;;;;;;;5109314;28;20387;-75
2022/06/23 08:39:59;;;;;;;8.73;3.15;;;;;;;;;;5109719;28;20026;-75
2022/06/23 08:42:43;;;;;;;7.00;2.90;;;;;;;;;;5109526;28;20668;-75
2022/06/23 08:45:28;;;;;;;7.97;3.72;;;;;;;;;;5109774;28;20028;-73
2022/06/23 08:47:53;;;;;;;10.43;3.03;;;;;;;;;;5107274;28;20028;-74
2022/06/23 08:50:41;;;;;;;7.47;3.20;;;;;;;;;;5089616;28;20036;-78
2022/06/23 08:53:17;;;;;;;8.52;3.13;;;;;;;;;;5089130;28;20024;-75
2022/06/23 08:56:08;;;;;;;7.45;3.08;;;;;;;;;;5092578;28;20101;-76
2022/06/23 08:58:50;;;;;;;8.18;2.78;;;;;;;;;;5079146;28;20518;-76
2022/06/23 09:01:31;;;;;;;8.82;2.70;;;;;;;;;;5093083;28;20410;-74
2022/06/23 09:04:05;;;;;;;6.70;2.88;;;;;;;;;;5093123;28;20073;-79
2022/06/23 09:06:38;;;;;;;10.98;2.80;;;;;;;;;;5092536;28;20499;-74
2022/06/23 09:09:19;;;;;;;9.13;2.90;;;;;;;;;;5093153;28;20039;-73
2022/06/23 09:12:00;;;;;;;8.55;2.92;;;;;;;;;;5092641;28;20032;-73
2022/06/23 09:14:43;;;;;;;11.98;3.33;;;;;;;;;;5092639;28;20062;-74
2022/06/23 09:17:38;;;;;;;11.90;3.10;;;;;;;;;;5092378;28;20024;-73
2022/06/23 09:20:25;;;;;;;7.03;3.10;;;;;;;;;;5092737;28;20052;-74
2022/06/23 09:23:28;;;;;;;8.52;3.00;;;;;;;;;;5092414;28;20028;-73
2022/06/23 09:26:08;;;;;;;9.75;3.30;;;;;;;;;;5092778;28;20028;-75
2022/06/23 09:28:49;;;;;;;9.95;3.03;;;;;;;;;;5092551;28;20043;-77
2022/06/23 09:31:39;;;;;;;8.00;2.95;;;;;;;;;;5092990;28;20035;-74
2022/06/23 09:34:14;;;;;;;11.15;3.20;;;;;;;;;;5092238;28;20063;-73
2022/06/23 09:37:11;;;;;;;11.48;3.17;;;;;;;;;;5091827;28;20510;-73
2022/06/23 09:39:57;;;;;;;9.88;3.25;;;;;;;;;;5051340;28;20032;-80
2022/06/23 09:42:49;;;;;;;6.80;2.50;;;;;;;;;;5092441;28;20031;-80
2022/06/23 09:45:42;;;;;;;10.95;2.85;;;;;;;;;;5092588;28;20024;-81
2022/06/23 09:48:25;;;;;;;12.82;2.83;;;;;;;;;;5092443;28;20507;-80
2022/06/23 09:51:02;;;;;;;9.45;2.72;;;;;;;;;;5091982;28;20028;-78
2022/06/23 09:53:39;;;;;;;13.23;2.72;;;;;;;;;;5092086;28;20494;-79
2022/06/23 09:56:24;;;;;;;10.50;3.03;;;;;;;;;;5092113;28;20032;-79
2022/06/23 09:59:23;;;;;;;8.23;2.70;;;;;;;;;;5092117;28;20494;-80
2022/06/23 10:01:49;;;;;;;7.05;2.75;;;;;;;;;;5092548;28;20036;-80
2022/06/23 10:04:40;;;;;;;5.25;2.65;;;;;;;;;;5091901;28;20020;-80
2022/06/23 10:07:17;;;;;;;4.80;2.67;;;;;;;;;;5090680;28;20541;-79
2022/06/23 10:10:11;;;;;;;6.30;2.65;;;;;;;;;;5091954;28;20024;-80
2022/06/23 10:13:00;;;;;;;5.45;2.42;;;;;;;;;;5073636;28;20035;-82
2022/06/23 10:15:31;;;;;;;5.03;2.75;;;;;;;;;;5091562;28;20501;-78
2022/06/23 10:18:21;;;;;;;4.07;2.80;;;;;;;;;;5091589;28;20396;-78
2022/06/23 10:20:59;;;;;;;6.00;2.90;;;;;;;;;;5091492;28;20478;-79
2022/06/23 10:23:47;;;;;;;5.00;2.60;;;;;;;;;;5091181;28;20062;-81
2022/06/23 10:26:22;;;;;;;4.32;2.60;;;;;;;;;;5091323;28;20028;-80
2022/06/23 10:29:06;;;;;;;5.10;2.55;;;;;;;;;;5091014;28;20024;-81
2022/06/23 10:31:52;;;;;;;5.78;2.65;;;;;;;;;;5091353;28;20368;-81
2022/06/23 10:34:35;;;;;;;5.85;2.40;;;;;;;;;;5090991;28;20025;-80
2022/06/23 10:37:03;;;;;;;4.97;2.50;;;;;;;;;;5090890;28;20028;-81
2022/06/23 10:39:45;;;;;;;3.97;2.20;;;;;;;;;;5090964;28;20020;-79
2022/06/23 10:42:32;;;;;;;5.90;2.60;;;;;;;;;;5091296;28;20028;-80
2022/06/23 10:45:17;;;;;;;8.75;2.78;;;;;;;;;;5091069;28;20063;-81
2022/06/23 10:48:18;;;;;;;4.53;2.78;;;;;;;;;;5090647;28;20028;-79
2022/06/23 10:50:48;;;;;;;7.03;3.10;;;;;;;;;;5090478;28;20030;-80
2022/06/23 10:53:43;;;;;;;8.10;3.22;;;;;;;;;;5090706;28;20028;-77
2022/06/23 10:56:43;;;;;;;5.25;2.70;;;;;;;;;;5068696;28;20033;-80
2022/06/23 10:59:31;;;;;;;4.87;2.80;;;;;;;;;;5090746;28;20116;-78
2022/06/23 11:02:21;;;;;;;6.72;2.90;;;;;;;;;;5091059;28;20020;-78
2022/06/23 11:05:15;;;;;;;7.07;2.90;;;;;;;;;;5090615;28;20472;-81
2022/06/23 11:08:01;;;;;;;7.05;2.70;;;;;;;;;;5090003;28;20027;-79
2022/06/23 11:10:45;;;;;;;6.65;2.50;;;;;;;;;;5090722;28;20032;-79
2022/06/23 11:13:19;;;;;;;5.63;2.30;;;;;;;;;;5090585;28;20020;-79
2022/06/23 11:16:12;;;;;;;4.13;2.35;;;;;;;;;;5090637;28;20066;-79
2022/06/23 11:18:50;;;;;;;6.60;2.20;;;;;;;;;;5089402;28;20028;-79
2022/06/23 11:21:36;;;;;;;5.80;2.40;;;;;;;;;;5090390;28;20441;-74
2022/06/23 11:24:28;;;;;;;4.50;2.20;;;;;;;;;;5090091;28;20024;-73
2022/06/23 11:27:12;;;;;;;6.68;2.42;;;;;;;;;;5038052;28;20032;-74
2022/06/23 11:29:49;;;;;;;5.07;2.10;;;;;;;;;;5089935;28;20035;-76
2022/06/23 11:32:40;;;;;;;6.53;2.53;;;;;;;;;;5090406;28;20039;-74
2022/06/23 11:35:18;;;;;;;6.70;2.67;;;;;;;;;;5089987;28;20035;-73
2022/06/23 11:38:14;;;;;;;4.53;2.20;;;;;;;;;;5089721;28;20020;-73
2022/06/23 11:40:42;;;;;;;3.30;2.20;;;;;;;;;;5090112;28;20072;-73
2022/06/23 11:43:50;;;;;;;6.18;2.38;;;;;;;;;;5089864;28;20058;-73
2022/06/23 11:46:21;;;;;;;5.90;2.63;;;;;;;;;;5089051;28;20125;-78
2022/06/23 11:48:52;;;;;;;;;;;;;;;;;;5090251;28;20388;-80
2022/06/23 11:51:26;;;;;;;6.15;2.13;;;;;;;;;;5089656;28;19919;-80
2022/06/23 11:54:06;;;;;;;5.15;2.25;;;;;;;;;;5089771;28;20662;-78
2022/06/23 11:56:38;;;;;;;;;;;;;;;;;;5090377;28;20102;-80
2022/06/23 11:59:22;;;;;;;3.63;1.90;;;;;;;;;;5089899;28;20375;-80
2022/06/23 12:01:47;;;;;;;5.80;2.17;;;;;;;;;;5089952;28;20043;-82
2022/06/23 12:04:50;;;;;;;4.03;1.98;;;;;;;;;;5089828;28;20032;-80
2022/06/23 12:07:18;;;;;;;5.32;1.88;;;;;;;;;;5089421;28;20032;-77
2022/06/23 12:09:56;;;;;;;5.65;1.67;;;;;;;;;;5089613;28;20046;-79
2022/06/23 12:12:22;;;;;;;5.82;1.80;;;;;;;;;;5090032;28;20617;-80
2022/06/23 12:14:50;;;;;;;8.18;2.30;;;;;;;;;;5089648;28;20016;-73
2022/06/23 12:17:30;;;;;;;7.50;1.58;;;;;;;;;;5089650;28;20035;-74
2022/06/23 12:20:23;;;;;;;3.00;1.50;;;;;;;;;;5089543;28;20024;-73
2022/06/23 12:23:15;;;;;;;5.22;1.60;;;;;;;;;;5089329;28;20040;-73
2022/06/23 12:26:11;;;;;;;7.47;1.40;;;;;;;;;;5089314;28;20028;-76
2022/06/23 12:28:39;;;;;;;4.20;1.50;;;;;;;;;;5089468;28;20558;-78
2022/06/23 12:31:49;;;;;;;4.20;1.40;;;;;;;;;;5093656;28;20107;-76
2022/06/23 12:34:44;;;;;;;5.85;1.63;;;;;;;;;;5093370;28;20395;-79
2022/06/23 12:37:27;;;;;;;5.28;1.60;;;;;;;;;;5092447;28;20035;-79
2022/06/23 12:40:03;;;;;;;5.20;1.58;;;;;;;;;;5093591;28;20024;-77
2022/06/23 12:42:38;;;;;;;6.22;1.58;;;;;;;;;;5093546;28;20031;-79
2022/06/23 12:45:18;;;;;;;4.32;1.30;;;;;;;;;;5093145;28;20496;-78
2022/06/23 12:48:03;;;;;;;6.68;1.35;;;;;;;;;;5093153;28;20035;-80
2022/06/23 12:50:44;;;;;;;7.28;1.50;;;;;;;;;;5093200;28;20031;-76
2022/06/23 12:53:24;;;;;;;3.55;1.40;;;;;;;;;;5093576;28;20028;-73
2022/06/23 12:55:53;;;;;;;;;;;;;;;;;;5093505;28;20024;-79
2022/06/23 12:58:40;;;;;;;4.82;1.70;;;;;;;;;;5093220;28;19938;-79
2022/06/23 13:01:20;;;;;;;2.40;1.23;;;;;;;;;;5093062;28;20427;-79
2022/06/23 13:03:50;;;;;;;;;;;;;;;;;;5093674;28;20032;-77
2022/06/23 13:06:21;;;;;;;3.78;1.25;;;;;;;;;;5092608;28;19912;-79
2022/06/23 13:09:00;;;;;;;6.05;1.73;;;;;;;;;;5074986;28;20052;-81
2022/06/23 13:11:52;;;;;;;5.38;1.50;;;;;;;;;;5093208;28;20536;-79
2022/06/23 13:14:26;;;;;;;3.85;1.50;;;;;;;;;;5081199;28;20036;-78
2022/06/23 13:17:06;;;;;;;4.22;1.40;;;;;;;;;;5092927;28;20020;-79
2022/06/23 13:19:45;;;;;;;6.28;1.85;;;;;;;;;;5092976;28;20111;-79
2022/06/23 13:22:11;;;;;;;5.53;1.42;;;;;;;;;;5076140;28;20061;-78
2022/06/23 13:24:42;;;;;;;4.00;1.30;;;;;;;;;;5092642;28;20086;-76
2022/06/23 13:27:10;;;;;;;4.50;1.30;;;;;;;;;;5092608;28;20522;-77
2022/06/23 13:30:05;;;;;;;4.35;1.40;;;;;;;;;;5092773;28;20042;-75
2022/06/23 13:32:36;;;;;;;3.28;1.40;;;;;;;;;;5092870;28;20498;-78
2022/06/23 13:35:06;;;;;;;4.68;1.20;;;;;;;;;;5074119;28;20031;-79
2022/06/23 13:37:49;;;;;;;3.87;1.30;;;;;;;;;;5092102;28;20115;-77
2022/06/23 13:40:28;;;;;;;5.85;1.30;;;;;;;;;;5091696;28;20027;-76
2022/06/23 13:43:09;;;;;;;3.55;1.48;;;;;;;;;;5092123;28;20099;-77
2022/06/23 13:45:55;;;;;;;6.38;1.42;;;;;;;;;;5092153;28;20099;-80
2022/06/23 13:48:33;;;;;;;5.47;1.20;;;;;;;;;;5091934;28;20048;-76
2022/06/23 13:51:17;;;;;;;2.97;1.23;;;;;;;;;;5091987;28;20035;-80
2022/06/23 13:53:47;;;;;;;4.32;1.10;;;;;;;;;;5092417;28;20024;-79
2022/06/23 13:56:18;;;;;;;4.57;1.30;;;;;;;;;;5091987;28;20085;-78
2022/06/23 13:58:58;;;;;;;3.72;1.30;;;;;;;;;;5091803;28;20734;-78
2022/06/23 14:01:52;;;;;;;2.38;1.20;;;;;;;;;;5091850;28;20028;-78
2022/06/23 14:04:34;;;;;;;3.53;1.13;;;;;;;;;;5091892;28;20032;-79
2022/06/23 14:07:46;;;;;;;4.43;1.10;;;;;;;;;;5091453;28;20118;-80
2022/06/23 14:10:15;;;;;;;2.80;1.10;;;;;;;;;;5077881;28;20039;-78
2022/06/23 14:13:18;;;;;;;6.20;1.30;;;;;;;;;;5091813;28;20472;-80
2022/06/23 14:16:16;;;;;;;5.32;1.20;;;;;;;;;;5091531;28;20475;-80
2022/06/23 14:19:01;;;;;;;2.63;1.00;;;;;;;;;;5090980;28;20154;-77
2022/06/23 14:21:40;;;;;;;4.00;1.05;;;;;;;;;;5090959;28;20027;-80
2022/06/23 14:24:25;;;;;;;4.22;1.10;;;;;;;;;;5091604;28;20502;-78
2022/06/23 14:27:00;;;;;;;4.00;1.00;;;;;;;;;;5091271;28;20495;-80
2022/06/23 14:29:47;;;;;;;2.85;1.10;;;;;;;;;;5091603;28;20496;-78
2022/06/23 14:32:24;;;;;;;4.05;1.10;;;;;;;;;;5091440;28;20024;-80
2022/06/23 14:35:00;;;;;;;3.30;1.10;;;;;;;;;;5091427;28;20495;-78
2022/06/23 14:37:44;;;;;;;5.38;1.05;;;;;;;;;;5090853;28;20031;-79
2022/06/23 14:40:20;;;;;;;3.28;1.00;;;;;;;;;;5091134;28;20055;-74
2022/06/23 14:43:02;;;;;;;4.32;1.00;;;;;;;;;;5091088;28;20020;-74
2022/06/23 14:46:00;;;;;;;2.20;0.95;;;;;;;;;;5091007;28;20387;-74
2022/06/23 14:48:49;;;;;;;3.72;0.90;;;;;;;;;;5090323;28;20543;-74
2022/06/23 14:51:15;;;;;;;4.80;1.10;;;;;;;;;;5090617;28;20028;-74
2022/06/23 14:53:49;;;;;;;3.75;0.90;;;;;;;;;;5090683;28;20468;-73
2022/06/23 14:56:27;;;;;;;3.72;1.00;;;;;;;;;;5090586;28;20495;-74
2022/06/23 14:59:09;;;;;;;3.78;1.00;;;;;;;;;;5090495;28;20483;-78
2022/06/23 15:01:52;;;;;;;4.45;0.98;;;;;;;;;;5090562;28;20020;-80
2022/06/23 15:04:29;;;;;;;2.80;0.93;;;;;;;;;;5090892;28;20044;-78
2022/06/23 15:07:08;;;;;;;2.40;1.08;;;;;;;;;;5090404;28;20024;-80
2022/06/23 15:09:33;;;;;;;3.22;1.00;;;;;;;;;;5090997;28;20020;-75
2022/06/23 15:12:13;;;;;;;4.63;1.00;;;;;;;;;;5090727;28;20027;-80
2022/06/23 15:14:42;;;;;;;3.67;1.00;;;;;;;;;;5090492;28;20047;-78
2022/06/23 15:17:16;;;;;;;4.65;1.08;;;;;;;;;;5090253;28;20093;-79
2022/06/23 15:19:56;;;;;;;2.53;1.00;;;;;;;;;;5090255;28;20020;-79
2022/06/23 15:25:41;;;;;;;3.50;0.95;;;;;;;;;;5090594;28;20039;-77
2022/06/23 15:28:19;;;;;;;3.67;1.05;;;;;;;;;;5090332;28;20039;-75
2022/06/23 15:31:06;;;;;;;2.08;0.88;;;;;;;;;;5090118;28;20020;-78
2022/06/23 15:33:44;;;;;;;4.25;1.20;;;;;;;;;;5090428;28;20028;-76
2022/06/23 15:36:41;;;;;;;3.67;0.93;;;;;;;;;;5089679;28;20031;-78
2022/06/23 15:39:30;;;;;;;4.10;1.20;;;;;;;;;;5089960;28;20028;-76
2022/06/23 15:41:59;;;;;;;4.13;1.00;;;;;;;;;;5090254;28;20511;-80
2022/06/23 15:44:29;;;;;;;5.40;1.20;;;;;;;;;;5090379;28;20031;-80
2022/06/23 15:47:23;;;;;;;6.53;1.20;;;;;;;;;;5089997;28;20627;-80
2022/06/23 15:49:54;;;;;;;3.60;0.93;;;;;;;;;;5089967;28;20488;-80
2022/06/23 15:52:56;;;;;;;2.47;0.98;;;;;;;;;;5089286;28;20043;-79
2022/06/23 15:55:34;;;;;;;2.17;0.93;;;;;;;;;;5089685;28;20028;-78
2022/06/23 15:58:25;;;;;;;5.00;1.10;;;;;;;;;;5089466;28;20145;-79
2022/06/23 16:01:04;;;;;;;2.88;1.10;;;;;;;;;;5090179;28;20066;-80
2022/06/23 16:03:33;;;;;;;5.97;1.00;;;;;;;;;;5089599;28;20099;-78
2022/06/23 16:06:04;;;;;;;2.25;1.00;;;;;;;;;;5089509;28;20028;-79